createdAt,value
2022-08-05T03:13:51.487Z,66.96
2022-08-05T03:16:29.130Z,67.06
2022-08-05T03:18:57.645Z,67.78
2022-08-05T03:21:23.822Z,67.53
2022-08-05T03:23:55.427Z,67.14
2022-08-05T03:26:31.569Z,66.93
2022-08-05T03:28:59.172Z,66.76
2022-08-05T03:31:55.633Z,66.74
2022-08-05T03:34:12.579Z,66.64
2022-08-05T03:36:38.750Z,67.13
2022-08-05T03:39:08.110Z,67.20
2022-08-05T03:41:45.491Z,66.76
2022-08-05T03:44:13.162Z,67.39
2022-08-05T03:46:46.249Z,66.41
2022-08-05T03:49:12.511Z,66.85
2022-08-05T03:52:49.231Z,65.99
2022-08-05T03:56:04.662Z,65.82
2022-08-05T03:57:46.110Z,66.14
2022-08-05T04:00:15.515Z,65.89
2022-08-05T04:02:57.589Z,65.74
2022-08-05T04:05:25.733Z,65.48
2022-08-05T04:07:58.000Z,65.34
2022-08-05T04:10:27.720Z,65.64
2022-08-05T04:12:54.481Z,65.08
2022-08-05T04:15:20.987Z,65.18
2022-08-05T04:17:57.104Z,65.11
2022-08-05T04:20:24.379Z,64.36
2022-08-05T04:22:50.599Z,64.43
2022-08-05T04:25:16.781Z,64.12
2022-08-05T04:27:56.641Z,64.15
2022-08-05T04:30:24.504Z,64.26
2022-08-05T04:32:52.758Z,63.87
2022-08-05T04:35:19.539Z,62.62
2022-08-05T04:38:02.304Z,62.73
2022-08-05T04:40:35.342Z,61.78
2022-08-05T04:43:01.641Z,61.47
2022-08-05T04:45:47.825Z,61.38
2022-08-05T04:48:18.519Z,60.04
2022-08-05T04:51:03.622Z,59.31
2022-08-05T04:53:38.676Z,59.03
2022-08-05T04:56:14.643Z,58.79
2022-08-05T04:58:42.807Z,58.11
2022-08-05T05:01:09.080Z,57.95
2022-08-05T05:03:42.325Z,57.80
2022-08-05T05:06:35.821Z,56.60
2022-08-05T05:08:59.462Z,55.43
2022-08-05T05:11:33.283Z,55.34
2022-08-05T05:14:08.793Z,55.15
2022-08-05T05:16:42.384Z,54.05
2022-08-05T05:19:18.898Z,53.49
2022-08-05T05:21:46.488Z,53.27
2022-08-05T05:24:14.246Z,52.51
2022-08-05T05:26:46.494Z,52.20
2022-08-05T05:29:14.665Z,51.31
2022-08-05T05:34:05.939Z,50.36
2022-08-05T05:36:32.690Z,50.67
2022-08-05T05:39:04.346Z,49.98
2022-08-05T05:41:40.697Z,50.41
2022-08-05T05:44:36.811Z,50.32
2022-08-05T05:46:54.246Z,49.93
2022-08-05T05:49:23.215Z,49.77
2022-08-05T05:51:50.769Z,49.89
2022-08-05T05:54:19.783Z,49.01
2022-08-05T05:56:45.939Z,49.27
2022-08-05T05:59:13.574Z,48.62
2022-08-05T06:01:41.510Z,47.92
2022-08-05T06:04:24.202Z,47.22
2022-08-05T06:06:50.405Z,46.35
2022-08-05T06:09:24.946Z,45.84
2022-08-05T06:12:00.977Z,45.15
2022-08-05T06:14:28.880Z,44.85
2022-08-05T06:16:55.323Z,44.10
2022-08-05T06:19:34.255Z,43.53
2022-08-05T06:22:01.862Z,44.25
2022-08-05T06:24:28.009Z,44.42
2022-08-05T06:26:54.479Z,43.94
2022-08-05T06:29:23.754Z,44.11
2022-08-05T06:31:53.222Z,43.34
2022-08-05T06:34:19.870Z,42.69
2022-08-05T06:36:57.096Z,43.64
2022-08-05T06:39:24.543Z,45.74
2022-08-05T06:41:53.779Z,47.26
2022-08-05T06:44:21.972Z,48.46
2022-08-05T06:46:51.122Z,49.65
2022-08-05T06:49:17.325Z,50.31
2022-08-05T06:51:45.060Z,52.13
2022-08-05T06:54:18.055Z,52.83
2022-08-05T06:56:55.003Z,53.40
2022-08-05T06:59:38.552Z,53.66
2022-08-05T07:02:05.087Z,53.86
2022-08-05T07:04:31.256Z,54.18
2022-08-05T07:07:00.195Z,54.37
2022-08-05T07:09:26.346Z,54.83
2022-08-05T07:12:00.162Z,54.48
2022-08-05T07:14:45.256Z,54.77
2022-08-05T07:18:00.629Z,55.19
2022-08-05T07:22:43.635Z,54.05
2022-08-05T07:25:55.429Z,54.26
2022-08-05T07:28:03.873Z,53.80
2022-08-05T07:30:33.897Z,53.75
2022-08-05T07:33:05.066Z,53.24
2022-08-05T07:36:03.569Z,52.53
2022-08-05T07:38:32.401Z,52.41
2022-08-05T07:41:16.701Z,52.24
2022-08-05T07:43:47.712Z,51.71
2022-08-05T07:46:24.254Z,50.42
2022-08-05T07:49:04.114Z,50.77
2022-08-05T07:51:36.868Z,49.49
2022-08-05T07:54:04.278Z,49.33
2022-08-05T07:57:00.357Z,48.64
2022-08-05T07:59:17.399Z,48.00
2022-08-05T08:01:52.067Z,48.33
2022-08-05T08:04:37.500Z,49.10
2022-08-05T08:07:07.023Z,50.08
2022-08-05T08:09:33.455Z,50.28
2022-08-05T08:12:06.189Z,49.78
2022-08-05T08:14:37.590Z,48.64
2022-08-05T08:17:10.871Z,47.90
2022-08-05T08:20:21.965Z,47.90
2022-08-05T08:22:30.080Z,46.73
2022-08-05T08:24:56.273Z,47.34
2022-08-05T08:27:39.960Z,46.77
2022-08-05T08:30:29.688Z,46.51
2022-08-05T08:32:58.300Z,46.94
2022-08-05T08:35:28.962Z,46.89
2022-08-05T08:38:01.419Z,47.77
2022-08-05T08:40:27.826Z,47.62
2022-08-05T08:42:54.839Z,47.30
2022-08-05T08:45:27.202Z,46.97
2022-08-05T08:48:12.364Z,46.68
2022-08-05T08:51:22.275Z,46.87
2022-08-05T08:53:36.830Z,47.06
2022-08-05T08:56:06.249Z,46.67
2022-08-05T08:58:43.370Z,46.12
2022-08-05T09:01:16.311Z,45.24
2022-08-05T09:03:45.782Z,44.66
2022-08-05T09:06:13.885Z,44.30
2022-08-05T09:08:44.739Z,44.49
2022-08-05T09:11:13.932Z,45.82
2022-08-05T09:14:00.998Z,46.60
2022-08-05T09:16:27.735Z,46.77
2022-08-05T09:18:55.447Z,46.35
2022-08-05T09:22:23.110Z,45.88
2022-08-05T09:24:13.130Z,44.31
2022-08-05T09:26:41.527Z,44.01
2022-08-05T09:29:09.959Z,43.91
2022-08-05T09:32:40.092Z,44.37
2022-08-05T09:34:22.685Z,44.79
2022-08-05T09:36:59.445Z,46.31
2022-08-05T09:39:45.275Z,45.47
2022-08-05T09:42:20.233Z,45.46
2022-08-05T09:44:56.512Z,45.82
2022-08-05T09:47:25.422Z,45.97
2022-08-05T09:50:02.421Z,46.32
2022-08-05T09:52:31.149Z,46.17
2022-08-05T09:55:58.062Z,45.82
2022-08-05T09:57:59.994Z,45.03
2022-08-05T10:00:26.688Z,45.37
2022-08-05T10:02:58.404Z,45.37
2022-08-05T10:05:26.952Z,45.79
2022-08-05T10:08:35.778Z,46.27
2022-08-05T10:10:45.070Z,45.77
2022-08-05T10:13:44.189Z,46.36
2022-08-05T10:16:41.787Z,46.96
2022-08-05T10:19:23.680Z,48.00
2022-08-05T10:22:07.602Z,48.24
2022-08-05T10:24:39.745Z,48.52
2022-08-05T10:27:07.548Z,49.40
2022-08-05T10:30:41.021Z,49.75
2022-08-05T10:32:53.761Z,51.74
2022-08-05T10:35:09.938Z,52.19
2022-08-05T10:37:40.031Z,57.51
2022-08-05T10:40:20.083Z,70.35
2022-08-05T10:43:01.233Z,69.57
2022-08-05T10:45:42.118Z,68.22
2022-08-05T10:48:36.016Z,70.60
2022-08-05T10:51:21.992Z,72.24
2022-08-05T10:53:51.919Z,73.23
2022-08-05T10:56:26.005Z,74.07
2022-08-05T10:58:58.450Z,72.80
2022-08-05T11:02:03.591Z,73.43
2022-08-05T11:04:27.990Z,74.04
2022-08-05T11:07:01.405Z,75.60
2022-08-05T11:09:45.299Z,76.04
2022-08-05T11:12:45.450Z,76.23
2022-08-05T11:15:58.945Z,77.71
2022-08-05T11:18:32.433Z,76.65
2022-08-05T11:21:06.143Z,73.90
2022-08-05T11:24:05.570Z,73.72
2022-08-05T11:26:32.471Z,72.20
2022-08-05T11:29:12.788Z,72.52
2022-08-05T11:31:57.835Z,75.45
2022-08-05T11:34:52.037Z,76.20
2022-08-05T11:38:26.237Z,76.94
2022-08-05T11:41:34.679Z,76.84
2022-08-05T11:44:40.088Z,76.06
2022-08-05T11:47:14.205Z,73.17
2022-08-05T11:49:43.547Z,70.68
2022-08-05T11:52:29.638Z,69.96
2022-08-05T11:54:59.058Z,70.26
2022-08-05T21:14:07.897Z,74.69
2022-08-05T21:16:34.081Z,74.34
2022-08-05T21:19:01.715Z,74.21
2022-08-05T21:21:43.827Z,73.92
2022-08-05T21:24:13.219Z,73.21
2022-08-05T21:26:39.868Z,72.58
2022-08-05T21:29:10.045Z,72.79
2022-08-05T21:31:41.560Z,72.40
2022-08-05T21:34:08.009Z,72.42
2022-08-05T21:36:36.645Z,72.28
2022-08-05T21:39:02.848Z,72.21
2022-08-05T21:41:33.895Z,72.34
2022-08-05T21:44:03.743Z,72.29
2022-08-05T21:46:32.161Z,72.38
2022-08-05T21:49:00.853Z,72.81
2022-08-05T21:52:15.929Z,72.58
2022-08-05T21:54:13.216Z,72.73
